createdAt,value
2023-02-08T00:02:01.372Z,99129.28
2023-02-08T00:04:27.761Z,99127.56
2023-02-08T00:06:54.167Z,99120.69
2023-02-08T00:09:20.526Z,99130.97
2023-02-08T00:11:46.944Z,99124.13
2023-02-08T00:14:13.342Z,99125.88
2023-02-08T00:16:39.762Z,99132.78
2023-02-08T00:19:06.120Z,99138.69
2023-02-08T00:21:32.595Z,99128.38
2023-02-08T00:23:58.934Z,99125.06
2023-02-08T00:26:25.406Z,99126.94
2023-02-08T00:28:51.763Z,99118.41
2023-02-08T00:31:18.407Z,99128.03
2023-02-08T00:33:44.824Z,99116.41
2023-02-08T00:36:11.487Z,99115.84
2023-02-08T00:38:38.006Z,99121.06
2023-02-08T00:41:04.928Z,99120.47
2023-02-08T00:43:31.603Z,99117.22
2023-02-08T00:45:58.661Z,99122.56
2023-02-08T00:48:25.790Z,99119.13
2023-02-08T00:51:02.982Z,99121.63
2023-02-08T00:53:29.673Z,99124.06
2023-02-08T00:55:56.528Z,99127.31
2023-02-08T00:58:23.325Z,99127.38
2023-02-08T01:00:53.165Z,99132.50
2023-02-08T01:03:20.268Z,99132.44
2023-02-08T01:05:46.636Z,99135.56
2023-02-08T01:08:13.075Z,99133.47
2023-02-08T01:10:39.699Z,99125.53
2023-02-08T01:13:06.270Z,99132.06
2023-02-08T01:15:32.669Z,99134.41
2023-02-08T01:17:59.064Z,99146.22
2023-02-08T01:20:25.516Z,99140.94
2023-02-08T01:22:51.921Z,99140.06
2023-02-08T01:25:18.308Z,99139.09
2023-02-08T01:27:44.732Z,99142.38
2023-02-08T01:30:11.408Z,99138.94
2023-02-08T01:32:37.884Z,99139.81
2023-02-08T01:35:04.463Z,99140.53
2023-02-08T01:37:30.885Z,99139.47
2023-02-08T01:39:57.319Z,99146.16
2023-02-08T01:42:23.757Z,99141.84
2023-02-08T01:45:05.354Z,99134.13
2023-02-08T01:47:31.809Z,99134.13
2023-02-08T01:49:58.261Z,99132.38
2023-02-08T01:52:26.823Z,99130.66
2023-02-08T01:54:56.572Z,99129.06
2023-02-08T01:57:23.454Z,99126.50
2023-02-08T01:59:52.495Z,99130.75
2023-02-08T02:02:21.027Z,99116.22
2023-02-08T02:04:48.657Z,99116.19
2023-02-08T02:07:16.345Z,99115.41
2023-02-08T02:09:45.612Z,99110.47
2023-02-08T02:12:12.375Z,99098.56
2023-02-08T02:14:39.340Z,99109.00
2023-02-08T02:17:06.296Z,99099.81
2023-02-08T02:19:48.123Z,99102.59
2023-02-08T02:22:32.920Z,99090.09
2023-02-08T02:25:11.871Z,99102.41
2023-02-08T02:27:41.070Z,99096.78
2023-02-08T02:30:13.514Z,99093.50
2023-02-08T02:32:50.832Z,99091.00
2023-02-08T02:35:40.547Z,99090.16
2023-02-08T02:38:14.431Z,99091.09
2023-02-08T02:40:46.143Z,99088.72
2023-02-08T02:43:35.139Z,99090.59
2023-02-08T02:46:07.363Z,99089.09
2023-02-08T02:48:39.728Z,99085.78
2023-02-08T02:51:09.901Z,99093.63
2023-02-08T02:53:36.279Z,99088.84
2023-02-08T02:56:06.603Z,99092.69
2023-02-08T02:58:33.220Z,99087.75
2023-02-08T03:00:59.747Z,99089.59
2023-02-08T03:03:27.436Z,99090.47
2023-02-08T03:05:58.560Z,99083.59
2023-02-08T03:08:40.287Z,99083.84
2023-02-08T03:11:15.624Z,99085.59
2023-02-08T03:13:45.041Z,99085.47
2023-02-08T03:16:11.407Z,99085.34
2023-02-08T03:18:46.962Z,99087.75
2023-02-08T03:21:16.331Z,99089.28
2023-02-08T03:24:01.640Z,99089.97
2023-02-08T03:26:28.071Z,99081.31
2023-02-08T03:28:57.218Z,99088.38
2023-02-08T03:31:28.683Z,99084.13
2023-02-08T03:34:01.724Z,99084.97
2023-02-08T03:36:35.210Z,99079.84
2023-02-08T03:39:03.544Z,99071.31
2023-02-08T03:41:33.775Z,99076.56
2023-02-08T03:44:03.542Z,99073.16
2023-02-08T03:46:34.938Z,99074.94
2023-02-08T03:49:09.363Z,99072.34
2023-02-08T03:51:39.059Z,99067.16
2023-02-08T03:54:07.672Z,99071.56
2023-02-08T03:56:34.046Z,99073.31
2023-02-08T03:59:03.606Z,99077.63
2023-02-08T04:01:32.237Z,99078.56
2023-02-08T04:03:59.897Z,99072.63
2023-02-08T04:06:26.649Z,99070.78
2023-02-08T04:08:53.081Z,99080.03
2023-02-08T04:11:19.876Z,99083.31
2023-02-08T04:13:46.227Z,99082.31
2023-02-08T04:16:12.831Z,99083.22
2023-02-08T04:18:39.214Z,99082.31
2023-02-08T04:21:05.905Z,99077.41
2023-02-08T04:23:32.287Z,99079.25
2023-02-08T04:25:58.747Z,99076.59
2023-02-08T04:28:25.095Z,99074.91
2023-02-08T04:30:51.592Z,99078.38
2023-02-08T04:33:17.989Z,99075.19
2023-02-08T04:35:44.373Z,99074.47
2023-02-08T04:38:10.895Z,99077.78
2023-02-08T04:40:37.287Z,99074.81
2023-02-08T04:43:03.975Z,99078.25
2023-02-08T04:45:32.090Z,99069.03
2023-02-08T04:47:59.274Z,99069.97
2023-02-08T04:50:26.141Z,99060.53
2023-02-08T04:52:52.579Z,99069.78
2023-02-08T04:55:18.953Z,99063.63
2023-02-08T04:57:45.336Z,99056.72
2023-02-08T05:00:12.094Z,99058.50
2023-02-08T05:02:38.523Z,99051.78
2023-02-08T05:05:05.231Z,99064.44
2023-02-08T05:07:31.678Z,99064.41
2023-02-08T05:09:58.053Z,99054.84
2023-02-08T05:12:24.466Z,99050.50
2023-02-08T05:14:50.896Z,99063.34
2023-02-08T05:17:17.263Z,99060.78
2023-02-08T05:19:43.659Z,99065.09
2023-02-08T05:22:10.005Z,99063.31
2023-02-08T05:24:36.456Z,99064.91
2023-02-08T05:27:02.810Z,99063.88
2023-02-08T05:29:29.261Z,99062.91
2023-02-08T05:31:55.709Z,99064.47
2023-02-08T05:34:22.177Z,99061.91
2023-02-08T05:36:48.554Z,99062.00
2023-02-08T05:39:14.975Z,99060.25
2023-02-08T05:41:41.333Z,99062.84
2023-02-08T05:44:07.764Z,99068.03
2023-02-08T05:46:35.460Z,99067.16
2023-02-08T05:49:03.529Z,99068.97
2023-02-08T05:51:29.862Z,99068.97
2023-02-08T05:53:56.237Z,99069.16
2023-02-08T05:56:22.629Z,99068.31
2023-02-08T05:58:49.085Z,99067.66
2023-02-08T06:01:15.478Z,99076.13
2023-02-08T06:03:41.927Z,99076.94
2023-02-08T06:06:11.217Z,99077.09
2023-02-08T06:08:38.695Z,99079.78
2023-02-08T06:11:05.429Z,99081.66
2023-02-08T06:13:32.024Z,99082.59
2023-02-08T06:15:58.409Z,99075.75
2023-02-08T06:18:24.858Z,99080.88
2023-02-08T06:20:54.717Z,99077.66
2023-02-08T06:23:21.385Z,99086.13
2023-02-08T06:25:47.820Z,99085.28
2023-02-08T06:28:14.270Z,99087.72
2023-02-08T06:30:41.260Z,99084.94
2023-02-08T06:33:07.856Z,99087.66
2023-02-08T06:35:34.292Z,99085.19
2023-02-08T06:38:00.868Z,99082.88
2023-02-08T06:40:27.381Z,99087.25
2023-02-08T06:42:53.825Z,99088.13
2023-02-08T06:45:20.230Z,99092.44
2023-02-08T06:47:46.615Z,99087.31
2023-02-08T06:50:14.804Z,99079.88
2023-02-08T06:52:41.194Z,99077.44
2023-02-08T06:55:07.739Z,99081.91
2023-02-08T06:57:34.105Z,99089.75
2023-02-08T07:00:00.487Z,99082.13
2023-02-08T07:02:27.735Z,99081.47
2023-02-08T07:04:54.353Z,99084.22
2023-02-08T07:07:20.761Z,99086.94
2023-02-08T07:09:47.223Z,99087.06
2023-02-08T07:12:13.758Z,99095.09
2023-02-08T07:14:41.604Z,99097.13
2023-02-08T07:17:08.381Z,99095.78
2023-02-08T07:19:34.757Z,99091.91
2023-02-08T07:22:07.196Z,99088.91
2023-02-08T07:24:37.914Z,99107.44
2023-02-08T07:27:05.157Z,99097.50
2023-02-08T07:29:32.162Z,99090.19
2023-02-08T07:31:59.330Z,99092.28
2023-02-08T07:34:25.937Z,99091.19
2023-02-08T07:36:52.404Z,99101.00
2023-02-08T07:39:18.825Z,99090.41
2023-02-08T07:41:45.275Z,99084.63
2023-02-08T07:44:11.727Z,99086.75
2023-02-08T07:46:38.177Z,99085.41
2023-02-08T07:49:04.725Z,99086.50
2023-02-08T07:51:36.287Z,99086.81
2023-02-08T07:54:27.646Z,99081.94
2023-02-08T07:57:03.681Z,99088.63
2023-02-08T08:02:42.360Z,99085.59
2023-02-08T08:05:31.913Z,99079.94
2023-02-08T08:11:25.722Z,99090.69
2023-02-08T08:27:35.181Z,99098.91
2023-02-08T08:33:53.039Z,99089.28
2023-02-08T08:42:41.350Z,99094.13
2023-02-08T08:45:08.937Z,99102.94
2023-02-08T08:47:35.313Z,99097.75
2023-02-08T08:50:01.934Z,99108.28
2023-02-08T08:52:28.445Z,99101.59
2023-02-08T08:54:55.108Z,99110.28
2023-02-08T08:57:24.341Z,99111.22
2023-02-08T08:59:50.901Z,99111.19
2023-02-08T09:02:17.371Z,99099.13
2023-02-08T09:04:43.834Z,99092.16
2023-02-08T09:07:10.431Z,99102.59
2023-02-08T09:09:36.924Z,99096.53
2023-02-08T09:12:03.612Z,99086.13
2023-02-08T09:14:30.024Z,99096.50
2023-02-08T09:16:56.375Z,99098.22
2023-02-08T09:19:22.786Z,99104.97
2023-02-08T09:21:49.166Z,99106.53
2023-02-08T09:24:16.510Z,99123.59
2023-02-08T09:26:42.940Z,99116.34
2023-02-08T09:29:09.357Z,99120.28
2023-02-08T09:31:37.844Z,99118.66
2023-02-08T09:34:05.067Z,99109.66
2023-02-08T09:36:36.422Z,99110.50
2023-02-08T09:39:14.564Z,99113.03
2023-02-08T09:41:42.644Z,99110.31
2023-02-08T09:44:14.963Z,99118.41
2023-02-08T09:46:44.479Z,99109.44
2023-02-08T09:49:16.802Z,99105.03
2023-02-08T09:51:50.981Z,99109.97
2023-02-08T09:54:30.380Z,99102.00
2023-02-08T09:56:58.257Z,99114.63
2023-02-08T09:59:29.447Z,99110.16
2023-02-08T10:02:11.064Z,99107.56
2023-02-08T10:04:48.295Z,99094.78
2023-02-08T10:07:14.704Z,99099.78
2023-02-08T10:09:41.088Z,99098.00
2023-02-08T10:12:16.582Z,99096.88
2023-02-08T10:14:43.443Z,99084.13
2023-02-08T10:17:19.756Z,99080.16
2023-02-08T10:20:06.369Z,99082.63
2023-02-08T10:22:48.429Z,99078.50
2023-02-08T10:25:25.481Z,99080.03
2023-02-08T10:28:06.915Z,99082.09
2023-02-08T10:30:33.395Z,99071.06
2023-02-08T10:33:01.728Z,99072.16
2023-02-08T10:35:32.345Z,99072.25
2023-02-08T10:41:43.195Z,99070.16
2023-02-08T10:44:15.447Z,99086.34
2023-02-08T10:46:50.019Z,99071.88
2023-02-08T10:49:35.012Z,99065.94
2023-02-08T10:52:02.483Z,99055.28
2023-02-08T10:54:28.980Z,99034.66
2023-02-08T10:56:57.601Z,99038.00
2023-02-08T10:59:26.157Z,99032.13
2023-02-08T11:01:53.124Z,99024.34
2023-02-08T11:04:19.705Z,99008.31
2023-02-08T11:06:47.374Z,99006.44
2023-02-08T11:09:24.555Z,99011.69
2023-02-08T11:11:52.859Z,98995.03
2023-02-08T11:14:22.788Z,98999.06
2023-02-08T11:16:52.957Z,98999.13
2023-02-08T11:19:31.444Z,98995.66
2023-02-08T11:21:59.017Z,98996.69
2023-02-08T11:24:26.995Z,98987.69
2023-02-08T11:26:53.595Z,98994.00
2023-02-08T11:29:25.573Z,98979.75
2023-02-08T11:31:55.050Z,98992.22
2023-02-08T11:39:18.689Z,98982.97
2023-02-08T11:41:51.963Z,98980.22
2023-02-08T11:48:04.427Z,98980.03
2023-02-08T11:52:03.398Z,98974.78
2023-02-08T11:54:04.677Z,98972.03
2023-02-08T12:21:29.622Z,98938.88
2023-02-08T12:24:17.519Z,98921.84
2023-02-08T12:26:52.991Z,98930.91
2023-02-08T12:29:46.856Z,98917.19
2023-02-08T12:32:14.497Z,98918.75
2023-02-08T12:35:26.781Z,98908.69
2023-02-08T12:38:33.485Z,98898.44
2023-02-08T12:41:14.927Z,98901.47
2023-02-08T12:44:15.244Z,98892.97
2023-02-08T12:51:27.880Z,98889.53
2023-02-08T12:53:56.882Z,98883.81
2023-02-08T12:56:53.648Z,98884.56
2023-02-08T12:59:30.264Z,98882.72
2023-02-08T13:02:01.782Z,98879.41
2023-02-08T13:04:39.599Z,98876.53
2023-02-08T13:07:13.188Z,98872.16
2023-02-08T13:09:48.504Z,98862.06
2023-02-08T13:12:18.013Z,98863.47
2023-02-08T13:17:13.870Z,98856.19
2023-02-08T13:23:53.135Z,98821.41
2023-02-08T13:26:31.753Z,98828.56
2023-02-08T13:29:01.492Z,98830.16
2023-02-08T13:31:31.646Z,98824.81
2023-02-08T13:34:02.215Z,98819.63
2023-02-08T13:36:31.173Z,98834.22
2023-02-08T13:38:59.014Z,98837.00
2023-02-08T13:41:26.487Z,98827.91
2023-02-08T13:43:58.714Z,98822.97
2023-02-08T13:46:27.005Z,98811.91
2023-02-08T13:48:55.203Z,98815.53
2023-02-08T13:51:30.722Z,98803.38
2023-02-08T13:53:57.237Z,98812.88
2023-02-08T13:56:49.796Z,98801.72
2023-02-08T13:59:27.979Z,98784.94
2023-02-08T14:02:12.962Z,98788.06
2023-02-08T14:04:40.399Z,98791.16
2023-02-08T14:07:06.729Z,98777.72
2023-02-08T14:09:51.668Z,98780.78
2023-02-08T14:12:24.494Z,98760.41
2023-02-08T14:15:09.695Z,98766.19
2023-02-08T14:17:36.236Z,98769.78
2023-02-08T14:20:05.424Z,98803.00
2023-02-08T14:22:37.375Z,98806.69
2023-02-08T14:25:06.392Z,98801.53
2023-02-08T14:27:41.193Z,98801.34
2023-02-08T14:30:07.717Z,98800.41
2023-02-08T14:32:41.039Z,98792.66
2023-02-08T14:35:13.532Z,98797.72
2023-02-08T14:37:40.499Z,98794.44
2023-02-08T14:40:25.289Z,98804.88
2023-02-08T14:43:02.453Z,98787.66
2023-02-08T14:45:36.192Z,98789.41
2023-02-08T14:48:41.319Z,98790.31
2023-02-08T14:51:10.596Z,98783.44
2023-02-08T14:53:44.220Z,98779.16
2023-02-08T14:56:26.000Z,98780.91
2023-02-08T14:59:04.556Z,98785.22
2023-02-08T15:01:50.923Z,98779.22
2023-02-08T15:04:20.282Z,98788.75
2023-02-08T15:07:05.373Z,98774.94
2023-02-08T15:09:35.280Z,98776.66
2023-02-08T15:12:02.907Z,98777.53
2023-02-08T15:14:30.474Z,98781.00
2023-02-08T15:16:56.915Z,98774.09
2023-02-08T15:19:26.028Z,98774.94
2023-02-08T15:21:52.494Z,98768.03
2023-02-08T15:24:22.441Z,98774.09
2023-02-08T15:26:53.287Z,98773.22
2023-02-08T15:29:19.633Z,98781.84
2023-02-08T15:31:46.549Z,98783.59
2023-02-08T15:34:13.004Z,98774.09
2023-02-08T15:36:40.882Z,98776.69
2023-02-08T15:39:15.071Z,98778.41
2023-02-08T15:41:41.468Z,98780.97
2023-02-08T15:44:16.954Z,98768.91
2023-02-08T15:46:44.246Z,98772.34
2023-02-08T15:49:18.305Z,98768.03
2023-02-08T15:51:45.480Z,98776.66
2023-02-08T15:54:16.746Z,98771.50
2023-02-08T15:58:46.319Z,98774.94
2023-02-08T16:01:17.241Z,98780.09
2023-02-08T16:03:47.351Z,98784.41
2023-02-08T16:06:13.804Z,98781.81
2023-02-08T16:08:41.403Z,98774.03
2023-02-08T16:11:12.622Z,98784.41
2023-02-08T16:18:58.459Z,98761.88
2023-02-08T16:21:24.940Z,98760.25
2023-02-08T16:23:57.553Z,98759.94
2023-02-08T16:26:28.664Z,98755.72
2023-02-08T16:29:01.235Z,98760.72
2023-02-08T16:31:31.040Z,98760.19
2023-02-08T16:33:59.706Z,98768.53
2023-02-08T16:36:32.514Z,98759.94
2023-02-08T16:39:14.071Z,98758.81
2023-02-08T16:42:15.775Z,98768.56
2023-02-08T16:45:17.250Z,98761.50
2023-02-08T16:47:55.111Z,98759.59
2023-02-08T16:50:27.787Z,98759.22
2023-02-08T16:52:59.707Z,98767.41
2023-02-08T16:55:29.965Z,98756.41
2023-02-08T16:57:58.135Z,98760.94
2023-02-08T17:00:31.054Z,98757.25
2023-02-08T17:02:58.182Z,98757.28
2023-02-08T17:05:28.737Z,98755.00
2023-02-08T17:07:55.702Z,98760.34
2023-02-08T17:10:31.104Z,98753.31
2023-02-08T17:13:17.509Z,98762.06
2023-02-08T17:15:47.884Z,98767.28
2023-02-08T17:18:14.821Z,98767.41
2023-02-08T17:20:41.788Z,98764.47
2023-02-08T17:23:10.047Z,98765.31
2023-02-08T17:25:36.743Z,98762.38
2023-02-08T17:28:11.605Z,98761.63
2023-02-08T17:33:50.293Z,98768.31
2023-02-08T17:36:17.643Z,98761.31
2023-02-08T17:38:46.303Z,98758.25
2023-02-08T17:45:32.434Z,98738.91
2023-02-08T17:49:59.799Z,98752.34
2023-02-08T17:53:54.778Z,98751.75
2023-02-08T17:56:27.704Z,98747.91
2023-02-08T17:58:55.871Z,98755.53
2023-02-08T18:01:25.450Z,98747.69
2023-02-08T18:03:53.215Z,98747.28
2023-02-08T18:06:20.064Z,98746.44
2023-02-08T18:08:46.629Z,98739.81
2023-02-08T18:11:18.025Z,98746.16
2023-02-08T18:13:45.479Z,98740.78
2023-02-08T18:16:18.969Z,98725.47
2023-02-08T18:18:46.180Z,98742.16
2023-02-08T18:21:21.529Z,98735.78
2023-02-08T18:23:51.864Z,98723.34
2023-02-08T18:26:21.286Z,98719.25
2023-02-08T18:28:48.586Z,98726.75
2023-02-08T18:31:16.756Z,98718.13
2023-02-08T18:33:43.922Z,98721.91
2023-02-08T18:36:13.499Z,98728.25
2023-02-08T18:38:40.323Z,98728.41
2023-02-08T18:41:10.996Z,98727.69
2023-02-08T18:43:37.828Z,98721.63
2023-02-08T18:46:05.770Z,98718.22
2023-02-08T18:48:32.238Z,98718.34
2023-02-08T18:50:59.470Z,98724.56
2023-02-08T18:53:29.242Z,98716.78
2023-02-08T18:56:00.077Z,98713.38
2023-02-08T18:58:26.904Z,98708.91
2023-02-08T19:00:53.667Z,98722.28
2023-02-08T19:03:20.471Z,98704.50
2023-02-08T19:05:47.238Z,98697.44
2023-02-08T19:08:14.320Z,98699.28
2023-02-08T19:10:41.182Z,98709.72
2023-02-08T19:13:07.992Z,98709.00
2023-02-08T19:16:32.985Z,98704.94
2023-02-08T19:19:01.135Z,98702.13
2023-02-08T19:21:31.296Z,98710.84
2023-02-08T19:23:58.264Z,98713.53
2023-02-08T19:26:30.603Z,98711.72
2023-02-08T19:28:59.512Z,98703.69
2023-02-08T19:31:27.902Z,98711.72
2023-02-08T19:33:58.579Z,98713.53
2023-02-08T19:36:27.758Z,98716.22
2023-02-08T19:38:55.367Z,98711.00
2023-02-08T19:41:25.207Z,98710.16
2023-02-08T19:43:52.153Z,98711.28
2023-02-08T19:46:22.383Z,98711.28
2023-02-08T19:48:49.450Z,98707.72
2023-02-08T19:51:15.875Z,98710.56
2023-02-08T19:53:42.350Z,98706.16
2023-02-08T19:56:11.466Z,98709.84
2023-02-08T19:58:38.073Z,98711.66
2023-02-08T20:01:18.184Z,98716.19
2023-02-08T20:03:44.961Z,98718.88
2023-02-08T20:06:14.428Z,98722.53
2023-02-08T20:08:40.866Z,98728.88
2023-02-08T20:11:07.217Z,98728.03
2023-02-08T20:13:33.602Z,98725.34
2023-02-08T20:16:00.110Z,98717.44
2023-02-08T20:18:26.573Z,98717.44
2023-02-08T20:21:00.299Z,98713.06
2023-02-08T20:23:26.940Z,98714.91
2023-02-08T20:26:02.881Z,98714.03
2023-02-08T20:28:29.312Z,98715.16
2023-02-08T20:30:55.832Z,98715.16
2023-02-08T20:33:22.244Z,98713.47
2023-02-08T20:35:48.703Z,98718.81
2023-02-08T20:38:15.115Z,98712.59
2023-02-08T20:40:41.674Z,98715.28
2023-02-08T20:43:08.191Z,98710.88
2023-02-08T20:45:34.556Z,98708.22
2023-02-08T20:48:00.974Z,98710.06
2023-02-08T20:50:27.922Z,98713.72
2023-02-08T20:52:54.339Z,98701.19
2023-02-08T20:55:20.733Z,98712.00
2023-02-08T20:57:47.210Z,98706.66
2023-02-08T21:00:13.925Z,98712.00
2023-02-08T21:02:41.911Z,98715.69
2023-02-08T21:05:08.333Z,98720.03
2023-02-08T21:07:34.749Z,98709.31
2023-02-08T21:10:03.935Z,98709.22
2023-02-08T21:12:32.014Z,98707.22
2023-02-08T21:14:59.464Z,98705.16
2023-02-08T21:17:25.933Z,98712.94
2023-02-08T21:19:52.385Z,98715.22
2023-02-08T21:22:18.832Z,98707.19
2023-02-08T21:24:45.213Z,98702.38
2023-02-08T21:27:12.932Z,98706.06
2023-02-08T21:29:39.312Z,98710.59
2023-02-08T21:32:05.910Z,98706.78
2023-02-08T21:34:32.308Z,98709.34
2023-02-08T21:36:58.717Z,98710.16
2023-02-08T21:39:25.083Z,98711.16
2023-02-08T21:41:52.252Z,98707.50
2023-02-08T21:46:17.862Z,98701.34
2023-02-08T21:49:02.965Z,98696.91
2023-02-08T21:51:48.309Z,98697.44
2023-02-08T21:54:37.114Z,98687.28
2023-02-08T21:57:05.947Z,98684.88
2023-02-08T21:59:39.643Z,98686.84
2023-02-08T22:02:13.922Z,98685.16
2023-02-08T22:04:41.988Z,98681.50
2023-02-08T22:07:08.539Z,98684.44
2023-02-08T22:09:36.427Z,98685.44
2023-02-08T22:12:02.995Z,98678.38
2023-02-08T22:14:29.509Z,98681.06
2023-02-08T22:16:55.990Z,98680.19
2023-02-08T22:19:22.480Z,98674.25
2023-02-08T22:21:49.005Z,98682.53
2023-02-08T22:24:15.477Z,98681.69
2023-02-08T22:26:43.827Z,98678.19
2023-02-08T22:29:10.537Z,98679.28
2023-02-08T22:31:37.314Z,98675.88
2023-02-08T22:34:04.539Z,98673.34
2023-02-08T22:36:31.469Z,98670.81
2023-02-08T22:38:58.006Z,98670.94
2023-02-08T22:41:24.517Z,98670.22
2023-02-08T22:43:51.086Z,98679.38
2023-02-08T22:46:17.721Z,98680.34
2023-02-08T22:48:44.263Z,98672.47
2023-02-08T22:51:14.705Z,98669.09
2023-02-08T22:53:41.542Z,98672.00
2023-02-08T22:56:08.442Z,98657.94
2023-02-08T22:58:35.588Z,98662.69
2023-02-08T23:01:02.174Z,98666.50
2023-02-08T23:03:28.747Z,98665.91
2023-02-08T23:05:55.291Z,98666.88
2023-02-08T23:08:22.428Z,98665.22
2023-02-08T23:10:49.197Z,98660.97
2023-02-08T23:13:15.961Z,98661.06
2023-02-08T23:15:44.781Z,98658.53
2023-02-08T23:18:11.676Z,98664.03
2023-02-08T23:20:40.552Z,98664.03
2023-02-08T23:23:07.502Z,98659.66
2023-02-08T23:25:34.423Z,98672.19
2023-02-08T23:28:01.137Z,98660.66
2023-02-08T23:30:27.786Z,98661.63
2023-02-08T23:32:54.541Z,98656.50
2023-02-08T23:35:21.059Z,98652.16
2023-02-08T23:37:47.596Z,98667.50
2023-02-08T23:40:14.281Z,98655.09
2023-02-08T23:42:40.942Z,98653.41
2023-02-08T23:45:08.156Z,98649.19
2023-02-08T23:47:34.803Z,98643.94
2023-02-08T23:50:01.354Z,98642.25
2023-02-08T23:52:27.840Z,98634.34
2023-02-08T23:54:54.377Z,98638.00
2023-02-08T23:57:20.863Z,98627.44
2023-02-08T23:59:47.561Z,98618.69
